Aérodrome :
LOGIN :

S'inscrire | Disclaimer

   EN    FR    IT 

 










Légende :    VFR   VFR Marginal   IFR   IFR Intensif   IFR Très Intensif
Visi : 
Plafond : 
>= 8 km
>= 3000ft
5 à 8 km
1000 à 3000 ft
1500m à 5 km
500 à 1000 ft
800 à 1500m
200 à 500 ft
< 800m
< 200 ft
Symboles :   Orages  Brouillard  Fortes neiges  Fortes précipitations  Vent > 20 kt
SIGMETs :   Divers  Orages  Givrage  Turbulence  Onde Orograph.  Cendres Volcan.







- Altitude de l'aérodrome : 1416 ft
- Code IATA : ZRH


LSZH - Zurich

DERNIER METAR :
  • 280250Z 28012KT 8000 RA FEW012 SCT016 BKN035 04/02 Q1001 NOSIG

METARs EXPIRÉS :
  • 280220Z 28016KT 9999 -RA FEW015 SCT030 BKN040 06/03 Q1000 BECMG RA
  • 280150Z 28013KT 9999 FEW022 SCT045 BKN055 08/04 Q0999 BECMG RA
  • 280120Z 30003KT 9999 FEW060 BKN100 06/M01 Q0998 NOSIG
  • 280050Z VRB03KT CAVOK 05/M01 Q0998 NOSIG

TAF TAF LSZH
Valide du 28 à 03h jusqu'au 01 à 09h UTC


280225Z 2803/0109 27014KT 7000 RA FEW015 BKN030 TX09/2812Z TN02/2806Z TN02/0106Z
TEMPO 2803/2805 28015G30KT 4000 +RA BKN013
PROB40
TEMPO 2804/2807 2500 RASN BKN009
BECMG 2807/2809 20008KT NSW
BECMG 2812/2814 24015G30KT
TEMPO 2813/2822 SHRA SCT030TCU
TEMPO 2814/2818 26020G45KT
PROB40
TEMPO 2814/2818 4000 TSRAGS SCT040CB
TEMPO 2822/0109 4000 SHGS SCT010TCU BKN012
ATIS : +41 43 816 2295 (DEP) +41 43 816 2294 (ARR)
Pas de NOTAMs connus pour ce terrain.
2 SIGMETs publiés pour la FIR Switzerland (LSAS) :
 
Orages noyés dans la masse
LSAS SIGMET 3 VALID 280300/280400 LSZH
LSAS SWITZERLAND FIR/UIR EMBD TS OBS W OF LINE N4558 E00655 - N4750 E00831 TOP FL270 MOV E WKN=
Turbulence forte
LSAS SIGMET 1 VALID 280100/280400 LSZH
LSAS SWITZERLAND FIR SEV TURB FCST W OF LINE N4559 E00642 - N4750 E00816 SFC/FL090 MOV E NC=



MET'MAP, la Météo Aéronautique d'un coup d'oeil ! - Copyright ORBIFLY Décembre 2007 - Disclaimer

ORBIFLY MET'MAP TEAM :

Programmation & Développement : Alexandra Zaïnal
Conception & Développement : Baudouin d'Aumeries
Co-Programmation & Développement : Marc-Olivier Méhu
Soutien technique & logistique : Manuel Goepfert

Contact : metmap@orbifly.com




SOURCES & CREDITS :

   NOAA